Share

Paphos, Cyprus

Paphos (LCPH) Elev 26 ft | 34.72 °N, 32.48 °E | Change Station

Current weather conditions updated 25 minutes ago

Scattered Clouds
Scattered Clouds
57 °F
Feels Like 57 °F
N
5
Wind Variable Wind from NNE
Sunrise 6:11 AM
Sunset 7:26 PM
Moon Waning Gibbous

Today is forecast to be Warmer than yesterday.

Pressure 29.95 in
Visibility 6.2 miles
Clouds Scattered Clouds 2000 ft
Scattered Clouds 2500 ft
Dew Point 54 °F
Humidity 88%
Rainfall 0.00 in
Snow Depth Not available.
UV 0 out of 16
Pollen Not available.
Air Quality Not available.
Flu Activity Not available.
METAR LCPH 210400Z 02004KT 330V050 9999 SCT020 SCT025 14/12 Q1014

More Conditions Fewer Conditions

Pressure 29.95 in
Visibility 6.2 miles
Clouds Scattered Clouds 2000 ft
Scattered Clouds 2500 ft
Dew Point 54 °F
Humidity 88%
Rainfall 0.00 in
Snow Depth Not available.
UV 0 out of 16
Pollen Not available.
Air Quality Not available.
Flu Activity Not available.
METAR LCPH 210400Z 02004KT 330V050 9999 SCT020 SCT025 14/12 Q1014

More Conditions Fewer Conditions

10-Day Weather Forecast

Almanac

Astronomy

Apr. 21, 2014 Rise Set
Actual Time 6:11 AM EEST 7:26 PM EEST
Civil Twilight 5:45 AM EEST 7:53 PM EEST
Nautical Twilight 5:13 AM EEST 8:24 PM EEST
Astronomical Twilight 4:41 AM EEST 8:57 PM EEST
Moon 12:36 AM EEST 11:18 AM EEST
Length of Visible Light 14h 08m
Length of Day
13h 15m
Tomorrow will be 2m 0s longer.
Waning Gibbous, 63% of the Moon is Illuminated
Today
Waning Gibbous
Apr 22
Last Quarter
Apr 29
New
May 6
First Quarter
May 14
Full

Yesterday's Extremes

Country Highs Country Lows

Community

  • Snowy Robin
    Snowy Robin
  • Sun Pillar and Geese
    Sun Pillar and Geese
  • Showers on the Way
    Showers on the Way
  • Easter Morning Fog
    Easter Morning Fog
  • Easter Dance
    Easter Dance

WunderPhotos

Upload Photos

1,703,556 photos uploaded!

WunderBlogs® & News

Nearby

Snow Depth

Not available.

Coastal Water Temperatures

Place Temperature
No Stations Reporting

Earthquake Activity

City Distance Mag. Time & Date
No recent earthquake activity has been reported nearby.
Minimum magnitude displayed is 2.5.

Nearby Weather Stations

Station Location Temp. Dew Point Humidity Wind Precip. Elev Updated Type
Paphos, Argaka, Polis 61.4 °F 53 °F 74% ESE  at  1.0 mph 0.00 in / hr 207 ft 6:25 AM EET Rapid Fire

Show More Stations Show Fewer Stations

What do you think?

We're not finished. Please let us know what you like, what you don't like, and what you are still missing.